createdAt,value
2018-01-14T00:00:55.533Z,1011.94
2018-01-14T00:02:48.586Z,1011.89
2018-01-14T00:03:48.548Z,1011.90
2018-01-14T00:05:41.463Z,1011.96
2018-01-14T00:06:41.417Z,1011.93
2018-01-14T00:08:34.338Z,1011.86
2018-01-14T00:09:34.303Z,1011.89
2018-01-14T00:11:27.230Z,1011.91
2018-01-14T00:12:27.166Z,1011.89
2018-01-14T00:14:19.957Z,1011.90
2018-01-14T00:15:19.957Z,1011.91
2018-01-14T00:17:12.868Z,1011.88
2018-01-14T00:18:12.806Z,1011.79
2018-01-14T00:20:05.597Z,1011.80
2018-01-14T00:21:05.567Z,1011.82
2018-01-14T00:22:58.494Z,1011.76
2018-01-14T00:23:58.438Z,1011.78
2018-01-14T00:25:51.562Z,1011.77
2018-01-14T00:26:51.466Z,1011.78
2018-01-14T00:28:44.373Z,1011.76
2018-01-14T00:29:44.333Z,1011.80
2018-01-14T00:31:37.163Z,1011.80
2018-01-14T00:32:37.092Z,1011.79
2018-01-14T00:34:30.028Z,1011.80
2018-01-14T00:35:29.991Z,1011.75
2018-01-14T00:37:23.185Z,1011.69
2018-01-14T00:38:23.016Z,1011.72
2018-01-14T00:40:15.931Z,1011.66
2018-01-14T00:41:15.901Z,1011.64
2018-01-14T00:43:08.842Z,1011.68
2018-01-14T00:44:08.776Z,1011.67
2018-01-14T00:46:01.992Z,1011.63
2018-01-14T00:47:01.811Z,1011.59
2018-01-14T00:48:54.741Z,1011.60
2018-01-14T00:49:54.692Z,1011.61
2018-01-14T00:51:47.615Z,1011.61
2018-01-14T00:52:47.573Z,1011.54
2018-01-14T00:54:40.493Z,1011.51
2018-01-14T00:55:40.447Z,1011.47
2018-01-14T00:57:33.265Z,1011.45
2018-01-14T00:58:33.208Z,1011.43
2018-01-14T01:00:26.269Z,1011.45
2018-01-14T01:01:26.232Z,1011.45
2018-01-14T01:03:19.161Z,1011.46
2018-01-14T01:04:19.093Z,1011.45
2018-01-14T01:06:12.373Z,1011.49
2018-01-14T01:07:12.193Z,1011.51
2018-01-14T01:09:05.131Z,1011.48
2018-01-14T01:10:05.067Z,1011.47
2018-01-14T01:11:57.977Z,1011.51
2018-01-14T01:12:58.005Z,1011.52
2018-01-14T01:14:50.886Z,1011.54
2018-01-14T01:15:50.811Z,1011.57
2018-01-14T01:17:43.862Z,1011.52
2018-01-14T01:18:43.766Z,1011.54
2018-01-14T01:20:36.703Z,1011.57
2018-01-14T01:21:36.644Z,1011.55
2018-01-14T01:23:29.581Z,1011.55
2018-01-14T01:24:29.533Z,1011.54
2018-01-14T01:26:22.685Z,1011.52
2018-01-14T01:27:22.572Z,1011.53
2018-01-14T01:29:15.494Z,1011.50
2018-01-14T01:30:15.454Z,1011.49
2018-01-14T01:32:08.401Z,1011.47
2018-01-14T01:33:08.387Z,1011.56
2018-01-14T01:35:01.518Z,1011.57
2018-01-14T01:36:01.364Z,1011.59
2018-01-14T01:37:54.373Z,1011.62
2018-01-14T01:38:54.298Z,1011.66
2018-01-14T01:40:47.221Z,1011.62
2018-01-14T01:41:47.165Z,1011.63
2018-01-14T01:43:40.277Z,1011.61
2018-01-14T01:44:40.218Z,1011.60
2018-01-14T01:46:33.143Z,1011.56
2018-01-14T01:47:33.088Z,1011.59
2018-01-14T01:49:26.005Z,1011.60
2018-01-14T01:50:25.957Z,1011.59
2018-01-14T01:52:18.922Z,1011.53
2018-01-14T01:53:18.858Z,1011.54
2018-01-14T01:55:11.668Z,1011.53
2018-01-14T01:56:11.631Z,1011.53
2018-01-14T01:58:04.576Z,1011.56
2018-01-14T01:59:04.521Z,1011.55
2018-01-14T02:00:57.426Z,1011.56
2018-01-14T02:01:57.396Z,1011.62
2018-01-14T02:03:50.212Z,1011.60
2018-01-14T02:04:50.178Z,1011.59
2018-01-14T02:06:43.255Z,1011.55
2018-01-14T02:07:43.203Z,1011.58
2018-01-14T02:09:36.147Z,1011.62
2018-01-14T02:10:36.067Z,1011.63
2018-01-14T02:12:28.893Z,1011.65
2018-01-14T02:13:28.835Z,1011.66
2018-01-14T02:15:21.748Z,1011.65
2018-01-14T02:16:21.703Z,1011.67
2018-01-14T02:18:14.872Z,1011.63
2018-01-14T02:19:14.796Z,1011.61
2018-01-14T02:21:07.717Z,1011.59
2018-01-14T02:22:07.681Z,1011.63
2018-01-14T02:24:00.612Z,1011.59
2018-01-14T02:25:00.563Z,1011.59
2018-01-14T02:26:53.622Z,1011.62
2018-01-14T02:27:53.578Z,1011.57
2018-01-14T02:29:46.501Z,1011.59
2018-01-14T02:30:46.462Z,1011.59
2018-01-14T02:32:39.261Z,1011.61
2018-01-14T02:33:39.212Z,1011.62
2018-01-14T02:35:32.149Z,1011.63
2018-01-14T02:36:32.103Z,1011.60
2018-01-14T02:38:24.911Z,1011.58
2018-01-14T02:39:24.844Z,1011.58
2018-01-14T02:41:17.833Z,1011.58
2018-01-14T02:42:17.751Z,1011.60
2018-01-14T02:44:10.673Z,1011.58
2018-01-14T02:45:10.635Z,1011.53
2018-01-14T02:47:03.563Z,1011.55
2018-01-14T02:48:03.506Z,1011.51
2018-01-14T02:49:56.603Z,1011.54
2018-01-14T02:50:56.524Z,1011.56
2018-01-14T02:52:49.477Z,1011.57
2018-01-14T02:53:49.395Z,1011.58
2018-01-14T02:55:42.336Z,1011.56
2018-01-14T02:56:42.321Z,1011.63
2018-01-14T02:58:35.506Z,1011.67
2018-01-14T02:59:35.329Z,1011.68
2018-01-14T03:01:28.247Z,1011.69
2018-01-14T03:02:28.199Z,1011.63
2018-01-14T03:04:21.112Z,1011.67
2018-01-14T03:05:21.064Z,1011.66
2018-01-14T03:07:13.997Z,1011.71
2018-01-14T03:08:13.951Z,1011.66
2018-01-14T03:10:06.739Z,1011.67
2018-01-14T03:11:06.713Z,1011.62
2018-01-14T03:12:59.621Z,1011.60
2018-01-14T03:13:59.477Z,1011.58
2018-01-14T03:15:52.394Z,1011.63
2018-01-14T03:16:52.347Z,1011.64
2018-01-14T03:18:45.321Z,1011.64
2018-01-14T03:19:45.247Z,1011.59
2018-01-14T03:21:38.047Z,1011.61
2018-01-14T03:22:38.012Z,1011.59
2018-01-14T03:24:30.823Z,1011.54
2018-01-14T03:25:30.778Z,1011.57
2018-01-14T03:27:23.751Z,1011.52
2018-01-14T03:28:23.665Z,1011.46
2018-01-14T03:30:16.578Z,1011.43
2018-01-14T03:31:16.537Z,1011.42
2018-01-14T03:33:09.469Z,1011.41
2018-01-14T03:34:09.406Z,1011.44
2018-01-14T03:36:02.514Z,1011.44
2018-01-14T03:37:02.459Z,1011.44
2018-01-14T03:38:55.383Z,1011.41
2018-01-14T03:39:55.338Z,1011.39
2018-01-14T03:41:48.263Z,1011.37
2018-01-14T03:42:48.206Z,1011.36
2018-01-14T03:44:41.459Z,1011.34
2018-01-14T03:45:41.268Z,1011.36
2018-01-14T03:47:34.182Z,1011.32
2018-01-14T03:48:34.134Z,1011.32
2018-01-14T03:50:27.069Z,1011.35
2018-01-14T03:51:27.007Z,1011.34
2018-01-14T03:53:19.933Z,1011.34
2018-01-14T03:54:19.888Z,1011.34
2018-01-14T03:56:12.981Z,1011.34
2018-01-14T03:57:12.852Z,1011.34
2018-01-14T03:59:05.782Z,1011.38
2018-01-14T04:00:05.732Z,1011.38
2018-01-14T04:01:58.674Z,1011.41
2018-01-14T04:02:58.609Z,1011.43
2018-01-14T04:04:51.756Z,1011.44
2018-01-14T04:05:51.658Z,1011.44
2018-01-14T04:07:44.610Z,1011.41
2018-01-14T04:08:44.532Z,1011.43
2018-01-14T04:10:37.467Z,1011.37
2018-01-14T04:11:37.484Z,1011.38
2018-01-14T04:13:30.538Z,1011.40
2018-01-14T04:14:30.457Z,1011.38
2018-01-14T04:16:23.378Z,1011.34
2018-01-14T04:17:23.335Z,1011.35
2018-01-14T04:19:16.286Z,1011.32
2018-01-14T04:20:16.209Z,1011.33
2018-01-14T04:22:09.132Z,1011.33
2018-01-14T04:23:09.093Z,1011.28
2018-01-14T04:25:01.914Z,1011.28
2018-01-14T04:26:01.854Z,1011.27
2018-01-14T04:27:54.779Z,1011.25
2018-01-14T04:28:54.741Z,1011.31
2018-01-14T04:30:47.670Z,1011.27
2018-01-14T04:31:47.657Z,1011.26
2018-01-14T04:33:40.542Z,1011.28
2018-01-14T04:34:40.483Z,1011.27
2018-01-14T04:36:33.343Z,1011.22
2018-01-14T04:37:33.265Z,1011.24
2018-01-14T04:39:26.308Z,1011.21
2018-01-14T04:40:26.242Z,1011.22
2018-01-14T04:42:19.152Z,1011.20
2018-01-14T04:43:19.117Z,1011.21
2018-01-14T04:45:12.037Z,1011.22
2018-01-14T04:46:11.985Z,1011.22
2018-01-14T04:48:04.788Z,1011.25
2018-01-14T04:49:04.737Z,1011.24
2018-01-14T04:50:57.720Z,1011.25
2018-01-14T04:51:57.639Z,1011.26
2018-01-14T04:53:50.589Z,1011.21
2018-01-14T04:54:50.508Z,1011.24
2018-01-14T04:56:43.306Z,1011.19
2018-01-14T04:57:43.387Z,1011.19
2018-01-14T04:59:36.188Z,1011.16
2018-01-14T05:00:36.147Z,1011.15
2018-01-14T05:02:29.203Z,1011.12
2018-01-14T05:03:28.988Z,1011.14
2018-01-14T05:05:21.903Z,1011.10
2018-01-14T05:06:21.866Z,1011.18
2018-01-14T05:08:14.830Z,1011.20
2018-01-14T05:09:14.747Z,1011.21
2018-01-14T05:11:07.689Z,1011.21
2018-01-14T05:12:07.619Z,1011.25
2018-01-14T05:14:00.427Z,1011.25
2018-01-14T05:15:00.397Z,1011.21
2018-01-14T05:16:53.222Z,1011.24
2018-01-14T05:17:53.152Z,1011.25
2018-01-14T05:19:46.078Z,1011.28
2018-01-14T05:20:46.029Z,1011.26
2018-01-14T05:22:38.961Z,1011.27
2018-01-14T05:23:38.913Z,1011.27
2018-01-14T05:25:32.029Z,1011.25
2018-01-14T05:26:31.994Z,1011.26
2018-01-14T05:28:25.062Z,1011.28
2018-01-14T05:29:24.997Z,1011.27
2018-01-14T05:31:17.926Z,1011.29
2018-01-14T05:32:17.879Z,1011.30
2018-01-14T05:34:10.819Z,1011.26
2018-01-14T05:35:10.762Z,1011.33
2018-01-14T05:37:03.690Z,1011.36
2018-01-14T05:38:03.647Z,1011.32
2018-01-14T05:39:56.567Z,1011.39
2018-01-14T05:40:56.523Z,1011.39
2018-01-14T05:42:49.436Z,1011.41
2018-01-14T05:43:49.374Z,1011.41
2018-01-14T05:45:42.290Z,1011.44
2018-01-14T05:46:42.241Z,1011.50
2018-01-14T05:48:35.166Z,1011.47
2018-01-14T05:49:35.112Z,1011.46
2018-01-14T05:51:28.043Z,1011.44
2018-01-14T05:52:27.992Z,1011.46
2018-01-14T05:54:20.929Z,1011.42
2018-01-14T05:55:20.853Z,1011.43
2018-01-14T05:57:13.953Z,1011.36
2018-01-14T05:58:13.898Z,1011.38
2018-01-14T06:00:07.328Z,1011.37
2018-01-14T06:01:06.774Z,1011.34
2018-01-14T06:02:59.712Z,1011.33
2018-01-14T06:03:59.642Z,1011.33
2018-01-14T06:05:52.784Z,1011.31
2018-01-14T06:06:52.657Z,1011.27
2018-01-14T06:08:45.572Z,1011.34
2018-01-14T06:09:45.532Z,1011.33
2018-01-14T06:11:38.353Z,1011.33
2018-01-14T06:12:38.293Z,1011.29
2018-01-14T06:14:31.233Z,1011.28
2018-01-14T06:15:31.158Z,1011.30
2018-01-14T06:17:24.309Z,1011.24
2018-01-14T06:18:24.238Z,1011.26
2018-01-14T06:20:17.223Z,1011.27
2018-01-14T06:21:17.169Z,1011.27
2018-01-14T06:23:10.078Z,1011.28
2018-01-14T06:24:10.043Z,1011.30
2018-01-14T06:26:03.148Z,1011.29
2018-01-14T06:27:02.978Z,1011.23
2018-01-14T06:28:55.913Z,1011.30
2018-01-14T06:29:55.868Z,1011.31
2018-01-14T06:31:48.792Z,1011.35
2018-01-14T06:32:48.742Z,1011.36
2018-01-14T06:34:41.653Z,1011.36
2018-01-14T06:35:41.612Z,1011.36
2018-01-14T06:37:34.504Z,1011.41
2018-01-14T06:38:34.430Z,1011.36
2018-01-14T06:40:27.357Z,1011.38
2018-01-14T06:41:27.335Z,1011.39
2018-01-14T06:43:20.265Z,1011.35
2018-01-14T06:44:20.323Z,1011.37
2018-01-14T06:46:13.126Z,1011.35
2018-01-14T06:47:13.065Z,1011.35
2018-01-14T06:49:06.167Z,1011.32
2018-01-14T06:50:06.097Z,1011.33
2018-01-14T06:51:58.914Z,1011.30
2018-01-14T06:52:58.855Z,1011.32
2018-01-14T06:54:51.767Z,1011.36
2018-01-14T06:55:51.750Z,1011.37
2018-01-14T06:57:44.557Z,1011.32
2018-01-14T06:58:44.488Z,1011.34
2018-01-14T07:00:37.310Z,1011.36
2018-01-14T07:01:37.263Z,1011.31
2018-01-14T07:03:30.175Z,1011.36
2018-01-14T07:04:30.049Z,1011.31
2018-01-14T07:06:22.948Z,1011.34
2018-01-14T07:07:22.939Z,1011.36
2018-01-14T07:09:15.829Z,1011.38
2018-01-14T07:10:15.766Z,1011.42
2018-01-14T07:12:08.729Z,1011.42
2018-01-14T07:13:08.645Z,1011.42
2018-01-14T07:15:01.449Z,1011.44
2018-01-14T07:16:01.413Z,1011.43
2018-01-14T07:17:54.374Z,1011.41
2018-01-14T07:18:54.329Z,1011.40
2018-01-14T07:20:47.266Z,1011.49
2018-01-14T07:21:47.225Z,1011.47
2018-01-14T07:23:40.201Z,1011.52
2018-01-14T07:24:40.130Z,1011.45
2018-01-14T07:26:32.938Z,1011.50
2018-01-14T07:27:32.908Z,1011.50
2018-01-14T07:29:25.868Z,1011.45
2018-01-14T07:30:25.770Z,1011.45
2018-01-14T07:32:18.693Z,1011.51
2018-01-14T07:33:18.654Z,1011.50
2018-01-14T07:35:11.575Z,1011.47
2018-01-14T07:36:11.540Z,1011.47
2018-01-14T07:38:04.658Z,1011.47
2018-01-14T07:39:04.566Z,1011.44
2018-01-14T07:40:57.495Z,1011.42
2018-01-14T07:41:57.440Z,1011.42
2018-01-14T07:43:50.396Z,1011.45
2018-01-14T07:44:50.326Z,1011.41
2018-01-14T07:46:43.305Z,1011.43
2018-01-14T07:47:43.265Z,1011.47
2018-01-14T07:49:36.226Z,1011.56
2018-01-14T07:50:36.134Z,1011.52
2018-01-14T07:52:28.935Z,1011.53
2018-01-14T07:53:28.889Z,1011.54
2018-01-14T07:55:21.831Z,1011.56
2018-01-14T07:56:21.772Z,1011.59
2018-01-14T07:58:14.668Z,1011.61
2018-01-14T07:59:14.639Z,1011.61
2018-01-14T08:01:07.580Z,1011.65
2018-01-14T08:02:07.458Z,1011.64
2018-01-14T08:04:00.519Z,1011.68
2018-01-14T08:05:00.476Z,1011.67
2018-01-14T08:06:53.403Z,1011.71
2018-01-14T08:07:53.356Z,1011.72
2018-01-14T08:09:46.458Z,1011.72
2018-01-14T08:10:46.395Z,1011.72
2018-01-14T08:12:39.308Z,1011.72
2018-01-14T08:13:39.265Z,1011.72
2018-01-14T08:15:32.205Z,1011.77
2018-01-14T08:16:32.144Z,1011.74
2018-01-14T08:18:25.380Z,1011.79
2018-01-14T08:19:25.225Z,1011.77
2018-01-14T08:21:18.161Z,1011.76
2018-01-14T08:22:18.102Z,1011.79
2018-01-14T08:24:11.060Z,1011.79
2018-01-14T08:25:10.984Z,1011.83
2018-01-14T08:27:04.198Z,1011.81
2018-01-14T08:28:04.143Z,1011.84
2018-01-14T08:29:57.131Z,1011.81
2018-01-14T08:30:57.071Z,1011.81
2018-01-14T08:32:49.970Z,1011.82
2018-01-14T08:33:49.935Z,1011.78
2018-01-14T08:35:43.089Z,1011.76
2018-01-14T08:36:43.033Z,1011.81
2018-01-14T08:38:36.075Z,1011.84
2018-01-14T08:39:35.938Z,1011.79
2018-01-14T08:41:28.882Z,1011.81
2018-01-14T08:42:28.814Z,1011.87
2018-01-14T08:44:21.615Z,1011.85
2018-01-14T08:45:21.580Z,1011.85
2018-01-14T08:47:14.520Z,1011.85
2018-01-14T08:48:14.450Z,1011.88
2018-01-14T08:50:07.361Z,1011.83
2018-01-14T08:51:07.324Z,1011.82
2018-01-14T08:53:00.245Z,1011.84
2018-01-14T08:54:00.181Z,1011.81
2018-01-14T08:55:53.450Z,1011.85
2018-01-14T08:56:53.221Z,1011.82
2018-01-14T08:58:46.144Z,1011.83
2018-01-14T08:59:46.114Z,1011.84
2018-01-14T09:01:38.914Z,1011.87
2018-01-14T09:02:38.856Z,1011.90
2018-01-14T09:04:31.775Z,1011.89
2018-01-14T09:05:31.740Z,1011.91
2018-01-14T09:07:24.570Z,1011.94
2018-01-14T09:08:24.491Z,1011.94
2018-01-14T09:10:17.293Z,1011.93
2018-01-14T09:11:17.243Z,1012.00
2018-01-14T09:13:10.185Z,1012.03
2018-01-14T09:14:10.115Z,1012.02
2018-01-14T09:16:03.041Z,1012.08
2018-01-14T09:17:02.994Z,1012.06
2018-01-14T09:18:55.927Z,1012.09
2018-01-14T09:19:55.873Z,1011.99
2018-01-14T09:21:48.958Z,1012.04
2018-01-14T09:22:48.927Z,1012.01
2018-01-14T09:24:41.845Z,1011.94
2018-01-14T09:25:41.789Z,1011.96
2018-01-14T09:27:34.730Z,1011.96
2018-01-14T09:28:34.698Z,1011.98
2018-01-14T09:30:27.780Z,1011.97
2018-01-14T09:31:27.741Z,1012.01
2018-01-14T09:33:20.666Z,1012.00
2018-01-14T09:34:20.611Z,1012.03
2018-01-14T09:36:13.515Z,1012.05
2018-01-14T09:37:13.519Z,1012.03
2018-01-14T09:39:06.550Z,1012.05
2018-01-14T09:40:06.491Z,1011.99
2018-01-14T09:41:59.297Z,1011.99
2018-01-14T09:42:59.260Z,1012.02
2018-01-14T09:44:52.196Z,1012.01
2018-01-14T09:45:52.136Z,1012.04
2018-01-14T09:47:45.035Z,1012.00
2018-01-14T09:48:45.022Z,1012.01
2018-01-14T09:50:38.116Z,1011.97
2018-01-14T09:51:38.056Z,1012.01
2018-01-14T09:53:30.970Z,1012.01
2018-01-14T09:54:30.936Z,1011.97
2018-01-14T09:56:23.884Z,1012.01
2018-01-14T09:57:23.800Z,1011.93
2018-01-14T09:59:16.702Z,1011.93
2018-01-14T10:00:16.656Z,1011.96
2018-01-14T10:02:09.525Z,1011.99
2018-01-14T10:03:09.469Z,1011.99
2018-01-14T10:05:02.406Z,1012.00
2018-01-14T10:06:02.336Z,1012.03
2018-01-14T10:07:55.326Z,1012.00
2018-01-14T10:08:55.251Z,1012.03
2018-01-14T10:10:48.359Z,1012.02
2018-01-14T10:11:48.291Z,1011.97
2018-01-14T10:13:41.198Z,1011.99
2018-01-14T10:14:41.173Z,1011.96
2018-01-14T10:16:34.100Z,1011.93
2018-01-14T10:17:34.030Z,1011.95
2018-01-14T10:19:26.949Z,1011.94
2018-01-14T10:20:26.906Z,1011.88
2018-01-14T10:22:20.036Z,1011.93
2018-01-14T10:23:19.865Z,1011.90
2018-01-14T10:25:12.772Z,1011.93
2018-01-14T10:26:12.727Z,1011.95
2018-01-14T10:28:05.673Z,1011.89
2018-01-14T10:29:05.626Z,1011.90
2018-01-14T10:30:58.520Z,1011.88
2018-01-14T10:31:58.480Z,1011.84
2018-01-14T10:33:51.505Z,1011.84
2018-01-14T10:34:51.436Z,1011.84
2018-01-14T10:36:44.381Z,1011.81
2018-01-14T10:37:44.328Z,1011.81
2018-01-14T10:39:37.235Z,1011.81
2018-01-14T10:40:37.200Z,1011.82
2018-01-14T10:42:30.327Z,1011.82
2018-01-14T10:43:30.267Z,1011.79
2018-01-14T10:45:23.195Z,1011.85
2018-01-14T10:46:23.156Z,1011.79
2018-01-14T10:48:16.074Z,1011.83
2018-01-14T10:49:16.031Z,1011.84
2018-01-14T10:51:09.221Z,1011.84
2018-01-14T10:52:09.175Z,1011.84
2018-01-14T10:54:02.151Z,1011.77
2018-01-14T10:55:02.048Z,1011.79
2018-01-14T10:56:54.849Z,1011.79
2018-01-14T10:57:54.843Z,1011.76
2018-01-14T10:59:47.892Z,1011.74
2018-01-14T11:00:47.835Z,1011.79
2018-01-14T11:02:40.742Z,1011.75
2018-01-14T11:03:40.702Z,1011.78
2018-01-14T11:05:33.651Z,1011.77
2018-01-14T11:06:33.593Z,1011.79
2018-01-14T11:08:26.544Z,1011.77
2018-01-14T11:09:26.471Z,1011.80
2018-01-14T11:11:19.566Z,1011.72
2018-01-14T11:12:19.363Z,1011.80
2018-01-14T11:14:12.292Z,1011.80
2018-01-14T11:15:12.238Z,1011.78
2018-01-14T11:17:05.066Z,1011.76
2018-01-14T11:18:04.996Z,1011.77
2018-01-14T11:19:57.924Z,1011.70
2018-01-14T11:20:57.892Z,1011.72
2018-01-14T11:22:51.010Z,1011.69
2018-01-14T11:23:50.927Z,1011.72
2018-01-14T11:25:43.865Z,1011.67
2018-01-14T11:26:43.799Z,1011.69
2018-01-14T11:28:36.775Z,1011.67
2018-01-14T11:29:36.752Z,1011.67
2018-01-14T11:31:29.915Z,1011.70
2018-01-14T11:32:29.815Z,1011.70
2018-01-14T11:34:22.762Z,1011.66
2018-01-14T11:35:22.701Z,1011.66
2018-01-14T11:37:15.514Z,1011.60
2018-01-14T11:38:15.462Z,1011.68
2018-01-14T11:40:08.407Z,1011.62
2018-01-14T11:41:08.334Z,1011.62
2018-01-14T11:43:01.375Z,1011.56
2018-01-14T11:44:01.298Z,1011.61
2018-01-14T11:45:54.224Z,1011.62
2018-01-14T11:46:54.205Z,1011.64
2018-01-14T11:48:47.140Z,1011.59
2018-01-14T11:49:47.088Z,1011.57
2018-01-14T11:51:39.865Z,1011.56
2018-01-14T11:52:39.833Z,1011.58
2018-01-14T11:54:32.890Z,1011.60
2018-01-14T11:55:32.806Z,1011.59
2018-01-14T11:57:25.714Z,1011.60
2018-01-14T11:58:25.695Z,1011.60
2018-01-14T12:00:18.622Z,1011.58
2018-01-14T12:01:18.550Z,1011.60
2018-01-14T12:03:11.753Z,1011.52
2018-01-14T12:04:11.605Z,1011.47
2018-01-14T12:06:04.512Z,1011.47
2018-01-14T12:07:04.477Z,1011.43
2018-01-14T12:08:57.476Z,1011.44
2018-01-14T12:09:57.397Z,1011.43
2018-01-14T12:11:50.335Z,1011.42
2018-01-14T12:12:50.285Z,1011.43
2018-01-14T12:14:43.224Z,1011.39
2018-01-14T12:15:43.157Z,1011.40
2018-01-14T12:17:36.086Z,1011.38
2018-01-14T12:18:36.036Z,1011.46
2018-01-14T12:20:28.976Z,1011.44
2018-01-14T12:21:28.965Z,1011.44
2018-01-14T12:23:21.826Z,1011.42
2018-01-14T12:24:21.789Z,1011.41
2018-01-14T12:26:14.753Z,1011.45
2018-01-14T12:27:14.668Z,1011.46
2018-01-14T12:29:07.585Z,1011.48
2018-01-14T12:30:07.577Z,1011.52
2018-01-14T12:32:00.368Z,1011.45
2018-01-14T12:33:00.390Z,1011.45
2018-01-14T12:34:53.550Z,1011.45
2018-01-14T12:35:53.369Z,1011.42
2018-01-14T12:37:46.292Z,1011.42
2018-01-14T12:38:46.251Z,1011.42
2018-01-14T12:40:39.180Z,1011.38
2018-01-14T12:41:39.127Z,1011.38
2018-01-14T12:43:32.045Z,1011.34
2018-01-14T12:44:31.994Z,1011.36
2018-01-14T12:46:24.842Z,1011.38
2018-01-14T12:47:24.749Z,1011.37
2018-01-14T12:49:17.590Z,1011.36
2018-01-14T12:50:17.532Z,1011.37
2018-01-14T12:52:10.465Z,1011.32
2018-01-14T12:53:10.437Z,1011.28
2018-01-14T12:55:03.483Z,1011.33
2018-01-14T12:56:03.449Z,1011.37
2018-01-14T12:57:56.327Z,1011.35
2018-01-14T12:58:56.245Z,1011.30
2018-01-14T13:00:49.170Z,1011.31
2018-01-14T13:01:49.145Z,1011.30
2018-01-14T13:03:42.102Z,1011.27
2018-01-14T13:04:42.007Z,1011.26
2018-01-14T13:06:34.941Z,1011.29
2018-01-14T13:07:34.902Z,1011.28
2018-01-14T13:09:27.996Z,1011.29
2018-01-14T13:10:27.885Z,1011.27
2018-01-14T13:12:20.838Z,1011.25
2018-01-14T13:13:20.775Z,1011.24
2018-01-14T13:15:14.026Z,1011.24
2018-01-14T13:16:13.662Z,1011.23
2018-01-14T13:18:06.815Z,1011.20
2018-01-14T13:19:06.728Z,1011.18
2018-01-14T13:20:59.681Z,1011.12
2018-01-14T13:21:59.642Z,1011.11
2018-01-14T13:23:52.721Z,1011.07
2018-01-14T13:24:52.650Z,1011.11
2018-01-14T13:26:45.490Z,1011.04
2018-01-14T13:27:45.453Z,1011.03
2018-01-14T13:29:38.412Z,1011.07
2018-01-14T13:30:38.366Z,1011.02
2018-01-14T13:32:31.280Z,1011.06
2018-01-14T13:33:31.356Z,1011.06
2018-01-14T13:35:24.532Z,1011.09
2018-01-14T13:36:24.438Z,1011.10
2018-01-14T13:38:17.405Z,1011.13
2018-01-14T13:39:17.350Z,1011.14
2018-01-14T13:41:10.260Z,1011.17
2018-01-14T13:42:10.221Z,1011.15
2018-01-14T13:44:03.396Z,1011.22
2018-01-14T13:45:03.271Z,1011.22
2018-01-14T13:46:56.213Z,1011.16
2018-01-14T13:47:56.168Z,1011.21
2018-01-14T13:49:49.127Z,1011.19
2018-01-14T13:50:49.085Z,1011.19
2018-01-14T13:52:42.276Z,1011.20
2018-01-14T13:53:42.146Z,1011.19
2018-01-14T13:55:35.090Z,1011.15
2018-01-14T13:56:35.017Z,1011.15
2018-01-14T13:58:27.947Z,1011.19
2018-01-14T13:59:27.920Z,1011.15
2018-01-14T14:01:20.717Z,1011.20
2018-01-14T14:02:20.658Z,1011.16
2018-01-14T14:04:13.516Z,1011.18
2018-01-14T14:05:13.487Z,1011.18
2018-01-14T14:07:06.330Z,1011.18
2018-01-14T14:08:06.270Z,1011.18
2018-01-14T14:09:59.180Z,1011.18
2018-01-14T14:10:59.156Z,1011.16
2018-01-14T14:12:51.968Z,1011.12
2018-01-14T14:13:51.942Z,1011.15
2018-01-14T14:15:44.851Z,1011.12
2018-01-14T14:16:44.781Z,1011.16
2018-01-14T14:18:37.660Z,1011.13
2018-01-14T14:19:37.613Z,1011.09
2018-01-14T14:21:30.553Z,1011.09
2018-01-14T14:22:30.518Z,1011.09
2018-01-14T14:24:23.446Z,1011.02
2018-01-14T14:25:23.478Z,1011.06
2018-01-14T14:27:16.388Z,1011.03
2018-01-14T14:28:16.302Z,1011.07
2018-01-14T14:30:09.162Z,1011.05
2018-01-14T14:31:09.076Z,1011.07
2018-01-14T14:33:01.992Z,1011.09
2018-01-14T14:34:01.948Z,1011.10
2018-01-14T14:35:54.891Z,1011.09
2018-01-14T14:36:54.837Z,1011.13
2018-01-14T14:38:47.796Z,1011.09
2018-01-14T14:39:47.719Z,1011.13
2018-01-14T14:41:40.730Z,1011.15
2018-01-14T14:42:40.651Z,1011.18
2018-01-14T14:44:33.807Z,1011.18
2018-01-14T14:45:33.624Z,1011.23
2018-01-14T14:47:26.641Z,1011.18
2018-01-14T14:48:26.571Z,1011.20
2018-01-14T14:50:19.394Z,1011.15
2018-01-14T14:51:19.337Z,1011.13
2018-01-14T14:53:12.290Z,1011.10
2018-01-14T14:54:12.211Z,1011.08
2018-01-14T14:56:05.149Z,1011.05
2018-01-14T14:57:05.077Z,1011.09
2018-01-14T14:58:58.032Z,1011.14
2018-01-14T14:59:57.971Z,1011.11
2018-01-14T15:01:51.142Z,1011.15
2018-01-14T15:02:51.112Z,1011.13
2018-01-14T15:04:44.052Z,1011.14
2018-01-14T15:05:43.986Z,1011.14
2018-01-14T15:07:36.973Z,1011.17
2018-01-14T15:08:36.867Z,1011.14
2018-01-14T15:10:29.678Z,1011.17
2018-01-14T15:11:29.633Z,1011.15
2018-01-14T15:13:22.636Z,1011.17
2018-01-14T15:14:22.573Z,1011.21
2018-01-14T15:16:15.509Z,1011.15
2018-01-14T15:17:15.442Z,1011.18
2018-01-14T15:19:08.253Z,1011.20
2018-01-14T15:20:08.209Z,1011.15
2018-01-14T15:22:01.153Z,1011.17
2018-01-14T15:23:01.087Z,1011.17
2018-01-14T15:24:54.073Z,1011.13
2018-01-14T15:25:53.921Z,1011.15
2018-01-14T15:27:46.696Z,1011.15
2018-01-14T15:28:46.651Z,1011.14
2018-01-14T15:30:39.626Z,1011.15
2018-01-14T15:31:39.532Z,1011.19
2018-01-14T15:33:32.489Z,1011.17
2018-01-14T15:34:32.411Z,1011.19
2018-01-14T15:36:25.534Z,1011.15
2018-01-14T15:37:25.457Z,1011.15
2018-01-14T15:39:18.363Z,1011.13
2018-01-14T15:40:18.349Z,1011.13
2018-01-14T15:42:11.324Z,1011.10
2018-01-14T15:43:11.218Z,1011.07
2018-01-14T15:45:04.441Z,1011.06
2018-01-14T15:46:04.384Z,1011.03
2018-01-14T15:47:57.308Z,1011.00
2018-01-14T15:48:57.256Z,1011.00
2018-01-14T15:50:50.177Z,1011.01
2018-01-14T15:51:50.129Z,1010.99
2018-01-14T15:53:43.316Z,1010.96
2018-01-14T15:54:43.217Z,1011.00
2018-01-14T15:56:36.198Z,1010.99
2018-01-14T15:57:36.123Z,1011.02
2018-01-14T15:59:29.037Z,1011.02
2018-01-14T16:00:28.978Z,1011.05
2018-01-14T16:02:22.154Z,1011.07
2018-01-14T16:03:22.029Z,1011.06
2018-01-14T16:05:15.070Z,1011.10
2018-01-14T16:06:15.012Z,1011.05
2018-01-14T16:08:07.947Z,1011.06
2018-01-14T16:09:07.894Z,1011.10
2018-01-14T16:11:00.743Z,1011.03
2018-01-14T16:12:00.737Z,1011.05
2018-01-14T16:13:53.657Z,1011.04
2018-01-14T16:14:53.581Z,1011.03
2018-01-14T16:16:46.532Z,1010.96
2018-01-14T16:17:46.476Z,1010.96
2018-01-14T16:19:39.397Z,1010.92
2018-01-14T16:20:39.348Z,1010.90
2018-01-14T16:22:32.519Z,1010.91
2018-01-14T16:23:32.360Z,1010.92
2018-01-14T16:25:25.307Z,1010.93
2018-01-14T16:26:25.745Z,1010.94
2018-01-14T16:28:18.148Z,1011.00
2018-01-14T16:29:18.178Z,1011.02
2018-01-14T16:31:11.338Z,1011.05
2018-01-14T16:32:11.217Z,1011.09
2018-01-14T16:34:04.119Z,1011.03
2018-01-14T16:35:04.075Z,1011.06
2018-01-14T16:36:57.069Z,1011.07
2018-01-14T16:37:56.992Z,1011.10
2018-01-14T16:39:50.178Z,1011.11
2018-01-14T16:40:50.094Z,1011.08
2018-01-14T16:42:42.919Z,1011.10
2018-01-14T16:43:42.858Z,1011.10
2018-01-14T16:45:35.840Z,1011.06
2018-01-14T16:46:35.808Z,1011.05
2018-01-14T16:48:29.056Z,1011.06
2018-01-14T16:49:28.864Z,1011.07
2018-01-14T16:51:21.823Z,1011.08
2018-01-14T16:52:21.748Z,1011.02
2018-01-14T16:54:15.204Z,1011.04
2018-01-14T16:55:15.086Z,1011.05
2018-01-14T16:57:08.023Z,1011.05
2018-01-14T16:58:07.956Z,1011.06
2018-01-14T17:00:00.897Z,1011.02
2018-01-14T17:01:00.852Z,1011.06
2018-01-14T17:02:53.790Z,1011.03
2018-01-14T17:03:53.740Z,1011.03
2018-01-14T17:05:46.797Z,1011.01
2018-01-14T17:06:46.708Z,1010.97
2018-01-14T17:08:39.619Z,1010.99
2018-01-14T17:09:39.615Z,1010.97
2018-01-14T17:11:32.534Z,1011.00
2018-01-14T17:12:32.457Z,1011.02
2018-01-14T17:14:25.682Z,1011.06
2018-01-14T17:15:25.642Z,1011.05
2018-01-14T17:17:18.544Z,1011.05
2018-01-14T17:18:18.498Z,1011.04
2018-01-14T17:20:11.458Z,1011.04
2018-01-14T17:21:11.377Z,1011.01
2018-01-14T17:23:04.212Z,1011.09
2018-01-14T17:24:04.124Z,1011.03
2018-01-14T17:25:57.115Z,1011.03